sensor_id;sensor_type;location;lat;lon;timestamp;temperature;humidity
50955;DHT22;36966;48.064;-0.792;2022-08-19T00:01:48;26.70;48.90
50955;DHT22;36966;48.064;-0.792;2022-08-19T00:04:10;26.70;48.90
50955;DHT22;36966;48.064;-0.792;2022-08-19T00:06:31;26.70;48.90
50955;DHT22;36966;48.064;-0.792;2022-08-19T00:08:50;26.70;48.90
50955;DHT22;36966;48.064;-0.792;2022-08-19T00:11:11;26.70;48.90
50955;DHT22;36966;48.064;-0.792;2022-08-19T00:13:31;26.70;49.00
50955;DHT22;36966;48.064;-0.792;2022-08-19T00:15:50;26.70;49.00
50955;DHT22;36966;48.064;-0.792;2022-08-19T00:18:11;26.70;49.00
50955;DHT22;36966;48.064;-0.792;2022-08-19T00:20:30;26.70;49.10
50955;DHT22;36966;48.064;-0.792;2022-08-19T00:22:49;26.70;49.10
50955;DHT22;36966;48.064;-0.792;2022-08-19T00:25:09;26.70;49.20
50955;DHT22;36966;48.064;-0.792;2022-08-19T00:27:28;26.70;49.20
50955;DHT22;36966;48.064;-0.792;2022-08-19T00:29:47;26.70;49.20
50955;DHT22;36966;48.064;-0.792;2022-08-19T00:32:06;26.70;49.20
50955;DHT22;36966;48.064;-0.792;2022-08-19T00:34:26;26.70;49.30
50955;DHT22;36966;48.064;-0.792;2022-08-19T00:36:48;26.60;49.30
50955;DHT22;36966;48.064;-0.792;2022-08-19T00:39:09;26.60;49.30
50955;DHT22;36966;48.064;-0.792;2022-08-19T00:41:28;26.60;49.40
50955;DHT22;36966;48.064;-0.792;2022-08-19T00:44:24;26.60;49.40
50955;DHT22;36966;48.064;-0.792;2022-08-19T00:46:44;26.60;49.40
50955;DHT22;36966;48.064;-0.792;2022-08-19T00:51:36;26.60;49.50
50955;DHT22;36966;48.064;-0.792;2022-08-19T00:53:57;26.60;49.50
50955;DHT22;36966;48.064;-0.792;2022-08-19T00:56:17;26.50;49.50
50955;DHT22;36966;48.064;-0.792;2022-08-19T00:58:37;26.60;49.60
50955;DHT22;36966;48.064;-0.792;2022-08-19T01:00:57;26.50;49.60
50955;DHT22;36966;48.064;-0.792;2022-08-19T01:03:20;26.50;49.60
50955;DHT22;36966;48.064;-0.792;2022-08-19T01:05:41;26.50;49.60
50955;DHT22;36966;48.064;-0.792;2022-08-19T01:08:02;26.50;49.60
50955;DHT22;36966;48.064;-0.792;2022-08-19T01:10:25;26.50;49.60
50955;DHT22;36966;48.064;-0.792;2022-08-19T01:12:47;26.50;49.70
50955;DHT22;36966;48.064;-0.792;2022-08-19T01:15:09;26.50;49.70
50955;DHT22;36966;48.064;-0.792;2022-08-19T01:17:28;26.40;49.70
50955;DHT22;36966;48.064;-0.792;2022-08-19T01:19:48;26.50;49.70
50955;DHT22;36966;48.064;-0.792;2022-08-19T01:22:30;26.40;49.70
50955;DHT22;36966;48.064;-0.792;2022-08-19T01:24:47;26.40;49.70
50955;DHT22;36966;48.064;-0.792;2022-08-19T01:27:07;26.40;49.70
50955;DHT22;36966;48.064;-0.792;2022-08-19T01:29:27;26.40;49.80
50955;DHT22;36966;48.064;-0.792;2022-08-19T01:31:48;26.40;49.80
50955;DHT22;36966;48.064;-0.792;2022-08-19T01:34:08;26.40;49.90
50955;DHT22;36966;48.064;-0.792;2022-08-19T01:38:52;26.40;49.90
50955;DHT22;36966;48.064;-0.792;2022-08-19T01:41:12;26.40;50.00
50955;DHT22;36966;48.064;-0.792;2022-08-19T01:43:33;26.40;50.00
50955;DHT22;36966;48.064;-0.792;2022-08-19T01:45:53;26.30;50.00
50955;DHT22;36966;48.064;-0.792;2022-08-19T01:48:13;26.40;50.00
50955;DHT22;36966;48.064;-0.792;2022-08-19T01:50:33;26.30;50.00
50955;DHT22;36966;48.064;-0.792;2022-08-19T01:52:52;26.30;50.00
50955;DHT22;36966;48.064;-0.792;2022-08-19T01:55:16;26.30;50.00
50955;DHT22;36966;48.064;-0.792;2022-08-19T01:57:36;26.30;50.00
50955;DHT22;36966;48.064;-0.792;2022-08-19T01:59:56;26.30;50.10
50955;DHT22;36966;48.064;-0.792;2022-08-19T02:02:15;26.30;50.20
50955;DHT22;36966;48.064;-0.792;2022-08-19T02:04:35;26.30;50.10
50955;DHT22;36966;48.064;-0.792;2022-08-19T02:06:57;26.30;50.20
50955;DHT22;36966;48.064;-0.792;2022-08-19T02:09:17;26.30;50.20
50955;DHT22;36966;48.064;-0.792;2022-08-19T02:11:37;26.30;50.20
50955;DHT22;36966;48.064;-0.792;2022-08-19T02:13:58;26.30;50.20
50955;DHT22;36966;48.064;-0.792;2022-08-19T02:16:18;26.30;50.30
50955;DHT22;36966;48.064;-0.792;2022-08-19T02:18:38;26.30;50.30
50955;DHT22;36966;48.064;-0.792;2022-08-19T02:20:57;26.30;50.30
50955;DHT22;36966;48.064;-0.792;2022-08-19T02:23:16;26.30;50.40
50955;DHT22;36966;48.064;-0.792;2022-08-19T02:25:36;26.20;50.40
50955;DHT22;36966;48.064;-0.792;2022-08-19T02:27:55;26.20;50.40
50955;DHT22;36966;48.064;-0.792;2022-08-19T02:30:16;26.30;50.40
50955;DHT22;36966;48.064;-0.792;2022-08-19T02:32:35;26.20;50.40
50955;DHT22;36966;48.064;-0.792;2022-08-19T02:34:55;26.20;50.50
50955;DHT22;36966;48.064;-0.792;2022-08-19T02:37:14;26.20;50.50
50955;DHT22;36966;48.064;-0.792;2022-08-19T02:39:52;26.20;50.50
50955;DHT22;36966;48.064;-0.792;2022-08-19T02:42:11;26.20;50.50
50955;DHT22;36966;48.064;-0.792;2022-08-19T02:44:31;26.20;50.60
50955;DHT22;36966;48.064;-0.792;2022-08-19T02:46:50;26.20;50.70
50955;DHT22;36966;48.064;-0.792;2022-08-19T02:49:09;26.20;50.60
50955;DHT22;36966;48.064;-0.792;2022-08-19T02:51:41;26.20;50.70
50955;DHT22;36966;48.064;-0.792;2022-08-19T02:54:02;26.20;50.80
50955;DHT22;36966;48.064;-0.792;2022-08-19T02:56:22;26.20;50.80
50955;DHT22;36966;48.064;-0.792;2022-08-19T02:58:44;26.20;50.80
50955;DHT22;36966;48.064;-0.792;2022-08-19T03:01:04;26.20;50.90
50955;DHT22;36966;48.064;-0.792;2022-08-19T03:03:23;26.20;50.90
50955;DHT22;36966;48.064;-0.792;2022-08-19T03:05:42;26.10;50.90
50955;DHT22;36966;48.064;-0.792;2022-08-19T03:08:02;26.20;51.00
50955;DHT22;36966;48.064;-0.792;2022-08-19T03:10:24;26.10;51.00
50955;DHT22;36966;48.064;-0.792;2022-08-19T03:12:43;26.20;51.00
50955;DHT22;36966;48.064;-0.792;2022-08-19T03:15:08;26.20;51.10
50955;DHT22;36966;48.064;-0.792;2022-08-19T03:17:27;26.10;51.10
50955;DHT22;36966;48.064;-0.792;2022-08-19T03:19:46;26.20;51.10
50955;DHT22;36966;48.064;-0.792;2022-08-19T03:22:06;26.10;51.10
50955;DHT22;36966;48.064;-0.792;2022-08-19T03:24:25;26.10;51.10
50955;DHT22;36966;48.064;-0.792;2022-08-19T03:26:47;26.10;51.10
50955;DHT22;36966;48.064;-0.792;2022-08-19T03:29:06;26.10;51.20
50955;DHT22;36966;48.064;-0.792;2022-08-19T03:31:29;26.10;51.10
50955;DHT22;36966;48.064;-0.792;2022-08-19T03:33:51;26.10;51.30
50955;DHT22;36966;48.064;-0.792;2022-08-19T03:36:24;26.10;51.40
50955;DHT22;36966;48.064;-0.792;2022-08-19T03:38:45;26.10;51.20
50955;DHT22;36966;48.064;-0.792;2022-08-19T03:41:09;26.10;51.30
50955;DHT22;36966;48.064;-0.792;2022-08-19T03:43:28;26.10;51.40
50955;DHT22;36966;48.064;-0.792;2022-08-19T03:45:47;26.10;51.40
50955;DHT22;36966;48.064;-0.792;2022-08-19T03:48:07;26.10;51.40
50955;DHT22;36966;48.064;-0.792;2022-08-19T03:50:27;26.00;51.30
50955;DHT22;36966;48.064;-0.792;2022-08-19T03:52:50;26.10;51.50
50955;DHT22;36966;48.064;-0.792;2022-08-19T03:55:09;26.00;52.30
50955;DHT22;36966;48.064;-0.792;2022-08-19T03:57:28;25.90;52.10
50955;DHT22;36966;48.064;-0.792;2022-08-19T03:59:47;26.00;52.10
50955;DHT22;36966;48.064;-0.792;2022-08-19T04:02:10;25.90;51.90
50955;DHT22;36966;48.064;-0.792;2022-08-19T04:04:29;26.00;51.90
50955;DHT22;36966;48.064;-0.792;2022-08-19T04:06:50;26.00;51.80
50955;DHT22;36966;48.064;-0.792;2022-08-19T04:09:11;26.00;51.80
50955;DHT22;36966;48.064;-0.792;2022-08-19T04:11:40;26.00;51.80
50955;DHT22;36966;48.064;-0.792;2022-08-19T04:14:02;26.00;51.70
50955;DHT22;36966;48.064;-0.792;2022-08-19T04:16:24;26.00;51.80
50955;DHT22;36966;48.064;-0.792;2022-08-19T04:18:43;26.00;51.80
50955;DHT22;36966;48.064;-0.792;2022-08-19T04:21:04;25.90;51.80
50955;DHT22;36966;48.064;-0.792;2022-08-19T04:23:24;25.90;51.70
50955;DHT22;36966;48.064;-0.792;2022-08-19T04:25:44;25.90;51.80
50955;DHT22;36966;48.064;-0.792;2022-08-19T04:28:03;26.00;51.80
50955;DHT22;36966;48.064;-0.792;2022-08-19T04:30:22;25.90;51.80
50955;DHT22;36966;48.064;-0.792;2022-08-19T04:32:41;25.90;51.70
50955;DHT22;36966;48.064;-0.792;2022-08-19T04:35:03;25.90;51.80
50955;DHT22;36966;48.064;-0.792;2022-08-19T04:37:22;25.90;51.80
50955;DHT22;36966;48.064;-0.792;2022-08-19T04:39:42;25.90;51.80
50955;DHT22;36966;48.064;-0.792;2022-08-19T04:42:19;25.90;51.80
50955;DHT22;36966;48.064;-0.792;2022-08-19T04:44:58;25.90;51.80
50955;DHT22;36966;48.064;-0.792;2022-08-19T04:47:17;25.90;51.80
50955;DHT22;36966;48.064;-0.792;2022-08-19T04:49:36;25.90;51.80
50955;DHT22;36966;48.064;-0.792;2022-08-19T04:51:55;25.80;51.80
50955;DHT22;36966;48.064;-0.792;2022-08-19T04:54:16;25.80;51.80
50955;DHT22;36966;48.064;-0.792;2022-08-19T04:56:36;25.80;51.80
50955;DHT22;36966;48.064;-0.792;2022-08-19T04:58:57;25.90;51.90
50955;DHT22;36966;48.064;-0.792;2022-08-19T05:01:25;25.90;51.90
50955;DHT22;36966;48.064;-0.792;2022-08-19T05:03:45;25.90;51.90
50955;DHT22;36966;48.064;-0.792;2022-08-19T05:06:06;25.80;51.90
50955;DHT22;36966;48.064;-0.792;2022-08-19T05:08:26;25.80;51.90
50955;DHT22;36966;48.064;-0.792;2022-08-19T05:10:50;25.80;51.90
50955;DHT22;36966;48.064;-0.792;2022-08-19T05:13:10;25.80;51.90
50955;DHT22;36966;48.064;-0.792;2022-08-19T05:15:30;25.80;51.90
50955;DHT22;36966;48.064;-0.792;2022-08-19T05:17:50;25.80;51.90
50955;DHT22;36966;48.064;-0.792;2022-08-19T05:20:28;25.80;51.90
50955;DHT22;36966;48.064;-0.792;2022-08-19T05:23:11;25.80;51.90
50955;DHT22;36966;48.064;-0.792;2022-08-19T05:25:33;25.80;51.90
50955;DHT22;36966;48.064;-0.792;2022-08-19T05:27:52;25.80;52.00
50955;DHT22;36966;48.064;-0.792;2022-08-19T05:30:12;25.80;52.00
50955;DHT22;36966;48.064;-0.792;2022-08-19T05:32:32;25.80;52.00
50955;DHT22;36966;48.064;-0.792;2022-08-19T05:34:50;25.80;52.00
50955;DHT22;36966;48.064;-0.792;2022-08-19T05:37:10;25.80;52.00
50955;DHT22;36966;48.064;-0.792;2022-08-19T05:39:32;25.80;52.00
50955;DHT22;36966;48.064;-0.792;2022-08-19T05:41:56;25.80;52.00
50955;DHT22;36966;48.064;-0.792;2022-08-19T05:44:17;25.80;52.10
50955;DHT22;36966;48.064;-0.792;2022-08-19T05:46:37;25.80;52.10
50955;DHT22;36966;48.064;-0.792;2022-08-19T05:48:58;25.80;52.10
50955;DHT22;36966;48.064;-0.792;2022-08-19T05:51:17;25.80;52.10
50955;DHT22;36966;48.064;-0.792;2022-08-19T05:53:36;25.80;52.20
50955;DHT22;36966;48.064;-0.792;2022-08-19T05:55:56;25.80;52.10
50955;DHT22;36966;48.064;-0.792;2022-08-19T05:58:15;25.80;52.10
50955;DHT22;36966;48.064;-0.792;2022-08-19T06:00:36;25.80;52.10
50955;DHT22;36966;48.064;-0.792;2022-08-19T06:02:56;25.80;52.10
50955;DHT22;36966;48.064;-0.792;2022-08-19T06:05:18;25.80;52.10
50955;DHT22;36966;48.064;-0.792;2022-08-19T06:07:39;25.90;52.10
50955;DHT22;36966;48.064;-0.792;2022-08-19T06:09:59;25.90;52.00
50955;DHT22;36966;48.064;-0.792;2022-08-19T06:12:18;25.90;52.10
50955;DHT22;36966;48.064;-0.792;2022-08-19T06:14:37;25.90;52.10
50955;DHT22;36966;48.064;-0.792;2022-08-19T06:16:57;25.90;52.10
50955;DHT22;36966;48.064;-0.792;2022-08-19T06:19:21;25.90;52.10
50955;DHT22;36966;48.064;-0.792;2022-08-19T06:21:43;25.80;52.20
50955;DHT22;36966;48.064;-0.792;2022-08-19T06:24:08;25.90;52.20
50955;DHT22;36966;48.064;-0.792;2022-08-19T06:26:28;25.90;52.20
50955;DHT22;36966;48.064;-0.792;2022-08-19T06:28:48;25.80;52.30
50955;DHT22;36966;48.064;-0.792;2022-08-19T06:31:07;25.80;52.30
50955;DHT22;36966;48.064;-0.792;2022-08-19T06:33:26;25.80;52.30
50955;DHT22;36966;48.064;-0.792;2022-08-19T06:35:46;25.90;52.30
50955;DHT22;36966;48.064;-0.792;2022-08-19T06:38:05;25.90;52.30
50955;DHT22;36966;48.064;-0.792;2022-08-19T06:40:25;25.90;52.30
50955;DHT22;36966;48.064;-0.792;2022-08-19T06:42:45;25.90;52.50
50955;DHT22;36966;48.064;-0.792;2022-08-19T06:45:06;25.80;52.40
50955;DHT22;36966;48.064;-0.792;2022-08-19T06:47:27;25.80;52.50
50955;DHT22;36966;48.064;-0.792;2022-08-19T06:49:47;25.90;52.50
50955;DHT22;36966;48.064;-0.792;2022-08-19T06:52:07;25.80;52.40
50955;DHT22;36966;48.064;-0.792;2022-08-19T06:54:27;25.80;52.50
50955;DHT22;36966;48.064;-0.792;2022-08-19T06:56:48;25.90;52.60
50955;DHT22;36966;48.064;-0.792;2022-08-19T06:59:10;25.90;52.60
50955;DHT22;36966;48.064;-0.792;2022-08-19T07:01:30;25.90;52.70
50955;DHT22;36966;48.064;-0.792;2022-08-19T07:03:49;25.90;52.80
50955;DHT22;36966;48.064;-0.792;2022-08-19T07:06:15;25.90;52.70
50955;DHT22;36966;48.064;-0.792;2022-08-19T07:08:38;25.80;52.90
50955;DHT22;36966;48.064;-0.792;2022-08-19T07:11:00;25.80;52.80
50955;DHT22;36966;48.064;-0.792;2022-08-19T07:13:19;25.90;53.00
50955;DHT22;36966;48.064;-0.792;2022-08-19T07:15:38;25.80;53.10
50955;DHT22;36966;48.064;-0.792;2022-08-19T07:17:57;25.90;53.10
50955;DHT22;36966;48.064;-0.792;2022-08-19T07:20:16;25.90;53.00
50955;DHT22;36966;48.064;-0.792;2022-08-19T07:22:39;25.90;53.20
50955;DHT22;36966;48.064;-0.792;2022-08-19T07:24:59;25.90;53.20
50955;DHT22;36966;48.064;-0.792;2022-08-19T07:27:18;25.80;53.20
50955;DHT22;36966;48.064;-0.792;2022-08-19T07:29:37;25.80;53.20
50955;DHT22;36966;48.064;-0.792;2022-08-19T07:31:57;25.80;53.10
50955;DHT22;36966;48.064;-0.792;2022-08-19T07:34:18;25.80;53.60
50955;DHT22;36966;48.064;-0.792;2022-08-19T07:36:40;25.80;53.80
50955;DHT22;36966;48.064;-0.792;2022-08-19T07:39:07;25.80;54.00
50955;DHT22;36966;48.064;-0.792;2022-08-19T07:41:28;25.80;53.80
50955;DHT22;36966;48.064;-0.792;2022-08-19T07:43:50;25.90;53.70
50955;DHT22;36966;48.064;-0.792;2022-08-19T07:46:10;25.90;53.70
50955;DHT22;36966;48.064;-0.792;2022-08-19T07:48:29;25.90;53.70
50955;DHT22;36966;48.064;-0.792;2022-08-19T07:50:49;25.90;53.60
50955;DHT22;36966;48.064;-0.792;2022-08-19T07:53:08;25.90;53.70
50955;DHT22;36966;48.064;-0.792;2022-08-19T07:55:27;25.80;53.70
50955;DHT22;36966;48.064;-0.792;2022-08-19T07:57:47;25.90;53.60
50955;DHT22;36966;48.064;-0.792;2022-08-19T08:00:07;25.80;53.60
50955;DHT22;36966;48.064;-0.792;2022-08-19T08:02:26;25.90;53.60
50955;DHT22;36966;48.064;-0.792;2022-08-19T08:04:45;25.90;53.60
50955;DHT22;36966;48.064;-0.792;2022-08-19T08:07:40;25.90;53.70
50955;DHT22;36966;48.064;-0.792;2022-08-19T08:10:18;25.90;53.70
50955;DHT22;36966;48.064;-0.792;2022-08-19T08:12:39;25.90;53.70
50955;DHT22;36966;48.064;-0.792;2022-08-19T08:15:08;25.90;53.80
50955;DHT22;36966;48.064;-0.792;2022-08-19T08:17:29;26.00;53.80
50955;DHT22;36966;48.064;-0.792;2022-08-19T08:19:49;26.00;53.80
50955;DHT22;36966;48.064;-0.792;2022-08-19T08:22:10;26.00;53.90
50955;DHT22;36966;48.064;-0.792;2022-08-19T08:24:52;26.00;53.90
50955;DHT22;36966;48.064;-0.792;2022-08-19T08:27:12;26.00;54.00
50955;DHT22;36966;48.064;-0.792;2022-08-19T08:29:31;26.00;54.00
50955;DHT22;36966;48.064;-0.792;2022-08-19T08:31:51;26.00;54.00
50955;DHT22;36966;48.064;-0.792;2022-08-19T08:34:12;25.90;54.10
50955;DHT22;36966;48.064;-0.792;2022-08-19T08:36:32;25.90;54.10
50955;DHT22;36966;48.064;-0.792;2022-08-19T08:38:52;25.90;54.10
50955;DHT22;36966;48.064;-0.792;2022-08-19T08:43:53;25.90;54.10
50955;DHT22;36966;48.064;-0.792;2022-08-19T08:46:44;26.00;54.10
50955;DHT22;36966;48.064;-0.792;2022-08-19T08:51:47;25.90;54.20
50955;DHT22;36966;48.064;-0.792;2022-08-19T08:54:10;25.90;54.20
50955;DHT22;36966;48.064;-0.792;2022-08-19T08:56:29;26.00;54.20
50955;DHT22;36966;48.064;-0.792;2022-08-19T08:58:58;26.00;54.20
50955;DHT22;36966;48.064;-0.792;2022-08-19T09:01:18;26.00;54.20
50955;DHT22;36966;48.064;-0.792;2022-08-19T09:03:40;25.90;54.20
50955;DHT22;36966;48.064;-0.792;2022-08-19T09:06:31;26.00;54.20
50955;DHT22;36966;48.064;-0.792;2022-08-19T09:09:04;26.00;54.20
50955;DHT22;36966;48.064;-0.792;2022-08-19T09:14:16;26.00;54.30
50955;DHT22;36966;48.064;-0.792;2022-08-19T09:16:37;25.90;54.30
50955;DHT22;36966;48.064;-0.792;2022-08-19T09:19:04;26.00;54.30
50955;DHT22;36966;48.064;-0.792;2022-08-19T09:21:25;26.00;54.30
50955;DHT22;36966;48.064;-0.792;2022-08-19T09:23:44;26.00;54.40
50955;DHT22;36966;48.064;-0.792;2022-08-19T09:26:12;26.00;54.60
50955;DHT22;36966;48.064;-0.792;2022-08-19T09:28:35;26.00;54.40
50955;DHT22;36966;48.064;-0.792;2022-08-19T09:30:56;26.00;54.40
50955;DHT22;36966;48.064;-0.792;2022-08-19T09:33:15;26.00;54.50
50955;DHT22;36966;48.064;-0.792;2022-08-19T09:35:34;26.00;54.80
50955;DHT22;36966;48.064;-0.792;2022-08-19T09:37:55;26.00;54.80
50955;DHT22;36966;48.064;-0.792;2022-08-19T09:40:17;26.10;54.90
50955;DHT22;36966;48.064;-0.792;2022-08-19T09:42:37;26.00;54.80
50955;DHT22;36966;48.064;-0.792;2022-08-19T09:44:56;26.10;54.90
50955;DHT22;36966;48.064;-0.792;2022-08-19T09:47:15;26.10;55.00
50955;DHT22;36966;48.064;-0.792;2022-08-19T09:49:35;26.10;55.10
50955;DHT22;36966;48.064;-0.792;2022-08-19T09:51:54;26.10;54.90
50955;DHT22;36966;48.064;-0.792;2022-08-19T09:54:15;26.10;54.90
50955;DHT22;36966;48.064;-0.792;2022-08-19T09:56:34;26.10;54.90
50955;DHT22;36966;48.064;-0.792;2022-08-19T09:58:53;26.10;55.00
50955;DHT22;36966;48.064;-0.792;2022-08-19T10:01:21;26.10;54.80
50955;DHT22;36966;48.064;-0.792;2022-08-19T10:03:40;26.10;54.80
50955;DHT22;36966;48.064;-0.792;2022-08-19T10:06:02;26.10;54.80
50955;DHT22;36966;48.064;-0.792;2022-08-19T10:08:24;26.10;54.70
50955;DHT22;36966;48.064;-0.792;2022-08-19T10:10:45;26.10;54.90
50955;DHT22;36966;48.064;-0.792;2022-08-19T10:13:05;26.10;55.00
50955;DHT22;36966;48.064;-0.792;2022-08-19T10:15:25;26.10;54.70
50955;DHT22;36966;48.064;-0.792;2022-08-19T10:17:44;26.10;54.70
50955;DHT22;36966;48.064;-0.792;2022-08-19T10:20:03;26.00;54.60
50955;DHT22;36966;48.064;-0.792;2022-08-19T10:22:23;26.10;54.70
50955;DHT22;36966;48.064;-0.792;2022-08-19T10:24:42;26.10;54.60
50955;DHT22;36966;48.064;-0.792;2022-08-19T10:27:02;26.10;54.70
50955;DHT22;36966;48.064;-0.792;2022-08-19T10:29:22;26.10;54.70
50955;DHT22;36966;48.064;-0.792;2022-08-19T10:31:42;26.10;54.90
50955;DHT22;36966;48.064;-0.792;2022-08-19T10:34:02;26.20;54.60
50955;DHT22;36966;48.064;-0.792;2022-08-19T10:36:23;26.20;55.00
50955;DHT22;36966;48.064;-0.792;2022-08-19T10:38:43;26.20;55.20
50955;DHT22;36966;48.064;-0.792;2022-08-19T10:41:09;26.30;55.80
50955;DHT22;36966;48.064;-0.792;2022-08-19T10:43:29;26.30;55.40
50955;DHT22;36966;48.064;-0.792;2022-08-19T10:45:54;26.30;54.90
50955;DHT22;36966;48.064;-0.792;2022-08-19T10:48:25;26.40;54.60
50955;DHT22;36966;48.064;-0.792;2022-08-19T10:50:44;26.30;54.40
50955;DHT22;36966;48.064;-0.792;2022-08-19T10:53:22;26.40;54.40
50955;DHT22;36966;48.064;-0.792;2022-08-19T10:55:44;26.40;54.50
50955;DHT22;36966;48.064;-0.792;2022-08-19T10:58:27;26.40;54.50
50955;DHT22;36966;48.064;-0.792;2022-08-19T11:00:55;26.40;54.50
50955;DHT22;36966;48.064;-0.792;2022-08-19T11:03:14;26.30;54.40
50955;DHT22;36966;48.064;-0.792;2022-08-19T11:05:34;26.40;54.50
50955;DHT22;36966;48.064;-0.792;2022-08-19T11:07:53;26.30;54.50
50955;DHT22;36966;48.064;-0.792;2022-08-19T11:10:14;26.30;54.50
50955;DHT22;36966;48.064;-0.792;2022-08-19T11:12:33;26.30;54.80
50955;DHT22;36966;48.064;-0.792;2022-08-19T11:14:52;26.20;54.80
50955;DHT22;36966;48.064;-0.792;2022-08-19T11:17:12;26.20;54.80
50955;DHT22;36966;48.064;-0.792;2022-08-19T11:19:33;26.20;54.90
50955;DHT22;36966;48.064;-0.792;2022-08-19T11:21:52;26.20;54.90
50955;DHT22;36966;48.064;-0.792;2022-08-19T11:24:16;26.20;54.90
50955;DHT22;36966;48.064;-0.792;2022-08-19T11:26:37;26.30;55.50
50955;DHT22;36966;48.064;-0.792;2022-08-19T11:28:57;26.60;56.00
50955;DHT22;36966;48.064;-0.792;2022-08-19T11:31:21;27.10;55.00
50955;DHT22;36966;48.064;-0.792;2022-08-19T11:33:41;27.30;54.30
50955;DHT22;36966;48.064;-0.792;2022-08-19T11:36:00;27.50;53.70
50955;DHT22;36966;48.064;-0.792;2022-08-19T11:38:20;27.70;53.50
50955;DHT22;36966;48.064;-0.792;2022-08-19T11:40:39;27.70;53.30
50955;DHT22;36966;48.064;-0.792;2022-08-19T11:43:00;27.80;53.50
50955;DHT22;36966;48.064;-0.792;2022-08-19T11:45:19;27.90;53.50
50955;DHT22;36966;48.064;-0.792;2022-08-19T11:47:39;28.00;53.10
50955;DHT22;36966;48.064;-0.792;2022-08-19T11:49:58;28.00;53.20
50955;DHT22;36966;48.064;-0.792;2022-08-19T11:52:17;28.10;53.10
50955;DHT22;36966;48.064;-0.792;2022-08-19T11:54:36;28.20;53.10
50955;DHT22;36966;48.064;-0.792;2022-08-19T11:56:55;28.20;53.00
50955;DHT22;36966;48.064;-0.792;2022-08-19T11:59:14;28.20;53.10
50955;DHT22;36966;48.064;-0.792;2022-08-19T12:01:34;28.20;53.10
50955;DHT22;36966;48.064;-0.792;2022-08-19T12:03:55;28.30;53.30
50955;DHT22;36966;48.064;-0.792;2022-08-19T12:06:18;28.30;53.30
50955;DHT22;36966;48.064;-0.792;2022-08-19T12:08:37;28.30;53.20
50955;DHT22;36966;48.064;-0.792;2022-08-19T12:10:57;28.30;53.20
50955;DHT22;36966;48.064;-0.792;2022-08-19T12:13:16;28.30;53.10
50955;DHT22;36966;48.064;-0.792;2022-08-19T12:15:39;28.40;52.90
50955;DHT22;36966;48.064;-0.792;2022-08-19T12:17:59;28.40;52.90
50955;DHT22;36966;48.064;-0.792;2022-08-19T12:20:18;28.40;52.70
50955;DHT22;36966;48.064;-0.792;2022-08-19T12:22:38;28.40;52.90
50955;DHT22;36966;48.064;-0.792;2022-08-19T12:24:58;28.40;52.90
50955;DHT22;36966;48.064;-0.792;2022-08-19T12:27:18;28.40;53.10
50955;DHT22;36966;48.064;-0.792;2022-08-19T12:29:37;28.30;53.10
50955;DHT22;36966;48.064;-0.792;2022-08-19T12:31:58;28.30;53.10
50955;DHT22;36966;48.064;-0.792;2022-08-19T12:34:21;28.30;53.10
50955;DHT22;36966;48.064;-0.792;2022-08-19T12:36:40;28.40;53.00
50955;DHT22;36966;48.064;-0.792;2022-08-19T12:39:00;28.50;52.90
50955;DHT22;36966;48.064;-0.792;2022-08-19T12:41:20;28.50;52.80
50955;DHT22;36966;48.064;-0.792;2022-08-19T12:43:41;28.60;52.80
50955;DHT22;36966;48.064;-0.792;2022-08-19T12:46:01;28.60;52.70
50955;DHT22;36966;48.064;-0.792;2022-08-19T12:48:23;28.70;52.80
50955;DHT22;36966;48.064;-0.792;2022-08-19T12:50:44;28.60;52.60
50955;DHT22;36966;48.064;-0.792;2022-08-19T12:53:06;28.70;52.80
50955;DHT22;36966;48.064;-0.792;2022-08-19T12:55:26;28.60;52.70
50955;DHT22;36966;48.064;-0.792;2022-08-19T12:57:48;28.60;52.60
50955;DHT22;36966;48.064;-0.792;2022-08-19T13:00:18;28.50;52.60
50955;DHT22;36966;48.064;-0.792;2022-08-19T13:02:41;28.60;52.70
50955;DHT22;36966;48.064;-0.792;2022-08-19T13:05:00;28.60;52.80
50955;DHT22;36966;48.064;-0.792;2022-08-19T13:07:20;28.60;52.80
50955;DHT22;36966;48.064;-0.792;2022-08-19T13:09:39;28.50;52.80
50955;DHT22;36966;48.064;-0.792;2022-08-19T13:12:02;28.50;52.80
50955;DHT22;36966;48.064;-0.792;2022-08-19T13:14:22;28.50;52.80
50955;DHT22;36966;48.064;-0.792;2022-08-19T13:16:41;28.50;52.70
50955;DHT22;36966;48.064;-0.792;2022-08-19T13:19:01;28.50;52.80
50955;DHT22;36966;48.064;-0.792;2022-08-19T13:21:26;28.50;52.90
50955;DHT22;36966;48.064;-0.792;2022-08-19T13:23:47;28.50;53.10
50955;DHT22;36966;48.064;-0.792;2022-08-19T13:26:08;28.50;53.10
50955;DHT22;36966;48.064;-0.792;2022-08-19T13:28:28;28.40;53.20
50955;DHT22;36966;48.064;-0.792;2022-08-19T13:31:10;28.40;53.20
50955;DHT22;36966;48.064;-0.792;2022-08-19T13:33:48;28.40;53.20
50955;DHT22;36966;48.064;-0.792;2022-08-19T13:36:07;28.30;53.30
50955;DHT22;36966;48.064;-0.792;2022-08-19T13:38:27;28.30;53.40
50955;DHT22;36966;48.064;-0.792;2022-08-19T13:40:48;28.30;53.40
50955;DHT22;36966;48.064;-0.792;2022-08-19T13:43:09;28.30;53.50
50955;DHT22;36966;48.064;-0.792;2022-08-19T13:45:30;28.30;53.40
50955;DHT22;36966;48.064;-0.792;2022-08-19T13:47:55;28.30;53.60
50955;DHT22;36966;48.064;-0.792;2022-08-19T13:50:21;28.30;53.40
50955;DHT22;36966;48.064;-0.792;2022-08-19T13:52:41;28.30;53.40
50955;DHT22;36966;48.064;-0.792;2022-08-19T13:55:01;28.20;53.40
50955;DHT22;36966;48.064;-0.792;2022-08-19T13:57:20;28.20;53.40
50955;DHT22;36966;48.064;-0.792;2022-08-19T13:59:39;28.20;53.50
50955;DHT22;36966;48.064;-0.792;2022-08-19T14:02:00;28.20;53.60
50955;DHT22;36966;48.064;-0.792;2022-08-19T14:04:20;28.20;53.60
50955;DHT22;36966;48.064;-0.792;2022-08-19T14:06:39;28.20;53.60
50955;DHT22;36966;48.064;-0.792;2022-08-19T14:08:58;28.20;53.70
50955;DHT22;36966;48.064;-0.792;2022-08-19T14:11:18;28.20;53.70
50955;DHT22;36966;48.064;-0.792;2022-08-19T14:13:38;28.10;53.70
50955;DHT22;36966;48.064;-0.792;2022-08-19T14:15:57;28.10;53.70
50955;DHT22;36966;48.064;-0.792;2022-08-19T14:18:18;28.20;53.80
50955;DHT22;36966;48.064;-0.792;2022-08-19T14:20:38;28.10;53.90
50955;DHT22;36966;48.064;-0.792;2022-08-19T14:22:57;28.10;53.80
50955;DHT22;36966;48.064;-0.792;2022-08-19T14:25:19;28.20;53.90
50955;DHT22;36966;48.064;-0.792;2022-08-19T14:27:39;28.10;53.90
50955;DHT22;36966;48.064;-0.792;2022-08-19T14:29:59;28.10;54.30
50955;DHT22;36966;48.064;-0.792;2022-08-19T14:32:19;28.00;54.10
50955;DHT22;36966;48.064;-0.792;2022-08-19T14:34:38;28.00;54.20
50955;DHT22;36966;48.064;-0.792;2022-08-19T14:36:57;28.00;53.90
50955;DHT22;36966;48.064;-0.792;2022-08-19T14:39:17;28.00;53.80
50955;DHT22;36966;48.064;-0.792;2022-08-19T14:41:40;28.10;53.90
50955;DHT22;36966;48.064;-0.792;2022-08-19T14:44:00;28.10;53.80
50955;DHT22;36966;48.064;-0.792;2022-08-19T14:46:23;28.00;53.70
50955;DHT22;36966;48.064;-0.792;2022-08-19T14:48:44;28.00;53.80
50955;DHT22;36966;48.064;-0.792;2022-08-19T14:51:03;28.10;53.70
50955;DHT22;36966;48.064;-0.792;2022-08-19T14:53:23;28.10;53.70